Time;durP1;ratioP1;P1;durP2;ratioP2;P2;SDS_P1;SDS_P2;PMS_P1;PMS_P2;Temp;Humidity;BMP_temperature;BMP_pressure;BME280_temperature;BME280_humidity;BME280_pressure;Samples;Min_cycle;Max_cycle;Signal;HPM_P1;HPM_P2
2020/12/30 00:01:28;;;;;;;1.10;0.70;;;;;;;15.59;51.56;99586.53;5086755;28;20479;-76
2020/12/30 00:03:53;;;;;;;1.17;0.80;;;;;;;15.57;51.63;99594.38;5084061;28;20409;-76
2020/12/30 00:06:19;;;;;;;1.00;0.80;;;;;;;15.57;51.77;99576.22;5087086;28;20028;-76
2020/12/30 00:08:48;;;;;;;1.20;0.70;;;;;;;15.57;51.56;99578.81;5058402;28;20024;-76
2020/12/30 00:11:16;;;;;;;1.30;0.80;;;;;;;15.57;51.43;99584.00;5094886;28;20112;-76
2020/12/30 00:13:41;;;;;;;1.30;0.82;;;;;;;15.56;52.10;99584.88;5079941;28;20028;-75
2020/12/30 00:16:06;;;;;;;1.45;0.80;;;;;;;15.56;51.53;99584.03;5084918;28;20410;-75
2020/12/30 00:18:32;;;;;;;1.30;0.80;;;;;;;15.57;51.50;99591.78;5083221;28;20093;-75
2020/12/30 00:20:57;;;;;;;0.90;0.77;;;;;;;15.56;51.54;99595.25;5094195;28;20028;-76
2020/12/30 00:23:26;;;;;;;0.98;0.75;;;;;;;15.57;51.61;99598.69;5091918;28;20059;-76
2020/12/30 00:25:51;;;;;;;1.92;0.80;;;;;;;15.56;51.54;99607.38;5094279;28;20036;-76
2020/12/30 00:28:17;;;;;;;0.90;0.70;;;;;;;15.55;51.44;99611.69;5092977;28;20489;-76
2020/12/30 00:30:44;;;;;;;1.33;0.80;;;;;;;15.54;51.43;99607.38;5086976;28;20081;-75
2020/12/30 00:33:09;;;;;;;0.75;0.60;;;;;;;15.54;51.53;99607.38;5092516;28;20032;-75
2020/12/30 00:35:34;;;;;;;0.98;0.70;;;;;;;15.54;51.51;99607.38;5084950;28;20036;-75
2020/12/30 00:38:00;;;;;;;1.10;0.80;;;;;;;15.55;51.58;99609.09;5073329;28;20054;-75
2020/12/30 00:40:25;;;;;;;1.85;0.88;;;;;;;15.53;51.56;99605.69;5093174;28;20028;-76
2020/12/30 00:42:50;;;;;;;1.05;0.70;;;;;;;15.55;51.53;99608.25;5086983;28;20169;-76
2020/12/30 00:45:16;;;;;;;0.90;0.70;;;;;;;15.54;51.65;99593.56;5092794;28;20028;-76
2020/12/30 00:47:42;;;;;;;1.00;0.73;;;;;;;15.55;51.47;99600.47;5093411;28;20028;-76
2020/12/30 00:50:07;;;;;;;0.95;0.80;;;;;;;15.54;51.56;99597.00;5095767;28;20081;-76
2020/12/30 00:52:33;;;;;;;1.23;0.77;;;;;;;15.54;51.25;99606.53;5075332;28;20064;-76
2020/12/30 00:54:58;;;;;;;0.70;0.60;;;;;;;15.53;51.56;99607.44;5078596;28;20028;-75
2020/12/30 00:57:24;;;;;;;1.02;0.75;;;;;;;15.54;51.47;99612.56;5067878;28;20040;-75
2020/12/30 00:59:49;;;;;;;1.55;0.80;;;;;;;15.54;51.64;99616.91;5091668;28;20532;-75
2020/12/30 01:02:14;;;;;;;1.33;0.80;;;;;;;15.54;51.52;99616.91;5072037;28;20069;-76
2020/12/30 01:04:41;;;;;;;0.90;0.60;;;;;;;15.57;51.28;99632.38;5089624;28;20548;-76
2020/12/30 01:07:07;;;;;;;1.08;0.70;;;;;;;15.58;51.28;99629.78;5092709;28;20410;-76
2020/12/30 01:09:32;;;;;;;1.25;0.88;;;;;;;15.58;51.28;99628.94;5094390;28;20020;-76
2020/12/30 01:12:02;;;;;;;1.30;0.70;;;;;;;15.60;51.38;99646.16;5090621;28;20410;-76
2020/12/30 01:14:28;;;;;;;1.05;0.60;;;;;;;15.63;51.38;99650.41;5072189;28;20031;-76
2020/12/30 01:16:54;;;;;;;1.40;0.70;;;;;;;15.63;51.25;99655.59;5093609;28;20028;-75
2020/12/30 01:19:20;;;;;;;1.08;0.70;;;;;;;15.64;51.25;99667.72;5071460;28;20044;-76
2020/12/30 01:21:46;;;;;;;0.68;0.50;;;;;;;15.63;51.31;99666.88;5087386;28;20055;-76
2020/12/30 01:24:11;;;;;;;0.60;0.50;;;;;;;15.64;51.37;99668.56;5089719;28;20051;-76
2020/12/30 01:26:37;;;;;;;0.57;0.50;;;;;;;15.66;51.21;99671.13;5088577;28;20066;-76
2020/12/30 01:29:04;;;;;;;0.70;0.52;;;;;;;15.67;51.18;99666.78;5090549;28;20055;-76
2020/12/30 01:31:30;;;;;;;0.70;0.57;;;;;;;15.67;51.20;99665.03;5094302;28;20028;-76
2020/12/30 01:33:56;;;;;;;0.77;0.60;;;;;;;15.68;51.17;99671.94;5093763;28;20036;-76
2020/12/30 01:36:22;;;;;;;1.13;0.68;;;;;;;15.70;51.25;99667.59;5073468;28;20361;-75
2020/12/30 01:38:48;;;;;;;1.25;0.60;;;;;;;15.69;51.12;99660.69;5088149;28;20431;-75
2020/12/30 01:41:14;;;;;;;0.75;0.55;;;;;;;15.70;51.25;99657.22;5075317;28;20020;-76
2020/12/30 01:43:39;;;;;;;1.10;0.70;;;;;;;15.71;51.06;99668.44;5086685;28;20031;-76
2020/12/30 01:46:05;;;;;;;0.88;0.60;;;;;;;15.71;51.13;99668.44;5092459;28;20036;-76
2020/12/30 01:48:33;;;;;;;0.45;0.43;;;;;;;15.71;51.11;99669.31;5079967;28;20036;-77
2020/12/30 01:50:59;;;;;;;0.70;0.50;;;;;;;15.73;51.09;99680.50;5090649;28;20031;-77
2020/12/30 01:53:24;;;;;;;1.40;0.57;;;;;;;15.73;51.08;99683.09;5094414;28;20043;-77
2020/12/30 01:55:52;;;;;;;0.50;0.40;;;;;;;15.73;51.19;99675.31;5078639;28;20036;-77
2020/12/30 01:58:17;;;;;;;0.68;0.50;;;;;;;15.73;51.08;99669.28;5091159;28;20382;-76
2020/12/30 02:00:48;;;;;;;0.85;0.50;;;;;;;15.74;51.15;99674.47;5095176;28;20028;-77
2020/12/30 02:03:14;;;;;;;0.40;0.40;;;;;;;15.75;51.02;99677.91;5092938;28;20032;-76
2020/12/30 02:05:42;;;;;;;1.23;0.70;;;;;;;15.75;51.10;99683.09;5084466;28;20417;-76
2020/12/30 02:08:08;;;;;;;0.80;0.50;;;;;;;15.75;51.09;99686.53;5091357;28;20558;-76
2020/12/30 02:10:33;;;;;;;0.70;0.47;;;;;;;15.76;51.08;99685.63;5067202;28;20115;-76
2020/12/30 02:12:59;;;;;;;0.40;0.40;;;;;;;15.76;51.11;99679.59;5058467;28;20115;-77
2020/12/30 02:15:31;;;;;;;0.80;0.40;;;;;;;15.76;51.13;99684.78;5057626;28;20020;-77
2020/12/30 02:17:57;;;;;;;0.70;0.50;;;;;;;15.74;51.14;99687.44;5092078;28;20034;-77
2020/12/30 02:20:23;;;;;;;0.55;0.40;;;;;;;15.71;51.31;99690.06;5090295;28;20098;-77
2020/12/30 02:23:00;;;;;;;0.63;0.40;;;;;;;15.71;51.13;99690.06;5089791;28;20036;-77
2020/12/30 02:25:25;;;;;;;0.40;0.40;;;;;;;15.70;51.32;99697.84;5082212;28;20025;-76
2020/12/30 02:27:51;;;;;;;0.75;0.40;;;;;;;15.69;51.33;99689.22;5072694;28;20147;-75
2020/12/30 02:30:18;;;;;;;0.40;0.40;;;;;;;15.68;51.28;99692.69;5102721;28;20032;-75
2020/12/30 02:32:43;;;;;;;0.65;0.40;;;;;;;15.67;51.45;99698.75;5086763;28;20398;-75
2020/12/30 02:35:09;;;;;;;0.90;0.40;;;;;;;15.67;51.50;99703.94;5093169;28;20028;-75
2020/12/30 02:37:34;;;;;;;1.23;0.70;;;;;;;15.66;51.26;99706.56;5093506;28;20028;-75
2020/12/30 02:40:00;;;;;;;0.50;0.50;;;;;;;15.64;51.39;99704.84;5092674;28;20117;-75
2020/12/30 02:42:25;;;;;;;0.60;0.50;;;;;;;15.66;51.44;99716.94;5096778;28;20390;-75
2020/12/30 02:44:58;;;;;;;0.40;0.40;;;;;;;15.64;51.24;99710.06;5093385;28;20040;-75
2020/12/30 02:47:23;;;;;;;0.60;0.40;;;;;;;15.64;51.61;99720.41;5087884;28;20168;-75
2020/12/30 02:49:48;;;;;;;0.80;0.40;;;;;;;15.64;50.92;99717.84;5083352;28;20028;-76
2020/12/30 02:52:14;;;;;;;0.80;0.40;;;;;;;15.62;51.48;99709.22;5089006;28;20043;-76
2020/12/30 02:54:39;;;;;;;0.52;0.50;;;;;;;15.63;51.51;99717.84;5091112;28;20078;-76
2020/12/30 02:57:04;;;;;;;0.77;0.50;;;;;;;15.62;51.44;99706.63;5094204;28;20032;-76
2020/12/30 02:59:30;;;;;;;0.93;0.50;;;;;;;15.63;50.71;99707.47;5075589;28;20059;-76
2020/12/30 03:01:55;;;;;;;1.23;0.57;;;;;;;15.63;51.35;99704.88;5094145;28;20478;-76
2020/12/30 03:04:20;;;;;;;0.57;0.32;;;;;;;15.62;51.47;99705.78;5090697;28;20040;-76
2020/12/30 03:06:46;;;;;;;0.35;0.32;;;;;;;15.61;51.42;99710.13;5096116;28;20032;-76
2020/12/30 03:09:11;;;;;;;0.40;0.40;;;;;;;15.62;51.49;99713.56;5094004;28;20103;-75
2020/12/30 03:11:36;;;;;;;0.50;0.40;;;;;;;15.61;51.42;99710.13;5092780;28;20104;-76
2020/12/30 03:14:01;;;;;;;0.40;0.40;;;;;;;15.61;51.48;99704.06;5095543;28;20028;-76
2020/12/30 03:16:27;;;;;;;0.82;0.40;;;;;;;15.61;51.96;99709.25;5092727;28;20036;-76
2020/12/30 03:18:52;;;;;;;0.52;0.38;;;;;;;15.60;51.47;99707.53;5093542;28;20056;-76
2020/12/30 03:21:17;;;;;;;0.40;0.40;;;;;;;15.60;51.49;99708.41;5093909;28;20028;-76
2020/12/30 03:23:43;;;;;;;0.70;0.40;;;;;;;15.60;51.43;99707.53;5095359;28;20398;-76
2020/12/30 03:26:08;;;;;;;0.65;0.43;;;;;;;15.59;51.51;99716.19;5070108;28;20051;-75
2020/12/30 03:28:34;;;;;;;0.43;0.40;;;;;;;15.59;51.52;99716.19;5090409;28;20050;-76
2020/12/30 03:30:59;;;;;;;0.30;0.30;;;;;;;15.59;51.28;99722.25;5085291;28;20048;-76
2020/12/30 03:33:24;;;;;;;0.43;0.40;;;;;;;15.60;51.56;99723.09;5069543;28;20375;-75
2020/12/30 03:35:50;;;;;;;0.47;0.40;;;;;;;15.59;51.40;99717.06;5093945;28;20508;-75
2020/12/30 03:38:15;;;;;;;0.40;0.40;;;;;;;15.60;51.40;99723.09;5093666;28;20486;-75
2020/12/30 03:40:40;;;;;;;0.30;0.30;;;;;;;15.59;51.27;99711.88;5077964;28;20032;-75
2020/12/30 03:43:06;;;;;;;0.60;0.50;;;;;;;15.57;51.62;99708.47;5091322;28;20024;-75
2020/12/30 03:45:31;;;;;;;0.77;0.52;;;;;;;15.58;50.93;99710.16;5094312;28;20020;-75
2020/12/30 03:47:58;;;;;;;0.57;0.43;;;;;;;15.57;51.38;99711.06;5075075;28;20494;-76
2020/12/30 03:50:23;;;;;;;0.50;0.30;;;;;;;15.57;51.38;99702.41;5095710;28;20028;-76
2020/12/30 03:52:48;;;;;;;0.47;0.40;;;;;;;15.57;51.46;99705.88;5071425;28;20155;-76
2020/12/30 03:55:14;;;;;;;1.08;0.40;;;;;;;15.57;51.52;99707.59;5092625;28;20039;-76
2020/12/30 03:57:39;;;;;;;0.55;0.35;;;;;;;15.57;51.49;99705.88;5090208;28;20032;-76
2020/12/30 04:00:04;;;;;;;1.90;0.40;;;;;;;15.57;51.54;99707.59;5072168;28;20040;-76
2020/12/30 04:02:30;;;;;;;0.38;0.38;;;;;;;15.55;51.42;99710.22;5057506;28;20352;-76
2020/12/30 04:04:55;;;;;;;0.50;0.32;;;;;;;15.56;51.42;99705.91;5053777;28;20032;-76
2020/12/30 04:07:20;;;;;;;0.73;0.40;;;;;;;15.55;51.30;99701.59;5090055;28;20053;-76
2020/12/30 04:09:46;;;;;;;0.40;0.40;;;;;;;15.56;51.10;99708.47;5076295;28;20036;-75
2020/12/30 04:12:11;;;;;;;0.75;0.40;;;;;;;15.56;51.51;99705.91;5091954;28;20036;-75
2020/12/30 04:14:36;;;;;;;0.50;0.30;;;;;;;15.55;51.35;99710.22;5094706;28;20032;-76
2020/12/30 04:17:02;;;;;;;0.47;0.40;;;;;;;15.55;51.38;99712.81;5089726;28;20028;-75
2020/12/30 04:19:29;;;;;;;0.90;0.40;;;;;;;15.55;51.41;99709.38;5093339;28;22228;-75
2020/12/30 04:21:54;;;;;;;0.85;0.40;;;;;;;15.54;51.12;99711.09;5087169;28;20052;-75
2020/12/30 04:24:20;;;;;;;0.52;0.40;;;;;;;15.54;51.45;99710.25;5092774;28;20482;-75
2020/12/30 04:26:45;;;;;;;0.63;0.40;;;;;;;15.54;51.23;99713.69;5082682;28;20099;-75
2020/12/30 04:29:10;;;;;;;0.30;0.30;;;;;;;15.54;51.55;99718.03;5086720;28;20043;-75
2020/12/30 04:31:36;;;;;;;0.77;0.30;;;;;;;15.53;51.38;99722.38;5089068;28;20107;-75
2020/12/30 04:34:03;;;;;;;0.30;0.30;;;;;;;15.54;51.32;99718.03;5092652;28;20028;-75
2020/12/30 04:36:28;;;;;;;0.38;0.32;;;;;;;15.54;51.47;99718.03;5084362;28;20040;-76
2020/12/30 04:38:53;;;;;;;0.57;0.30;;;;;;;15.54;51.39;99723.22;5091151;28;20091;-75
2020/12/30 04:41:31;;;;;;;0.38;0.30;;;;;;;15.55;51.41;99722.34;5090270;28;20045;-77
2020/12/30 04:43:58;;;;;;;0.52;0.40;;;;;;;15.57;51.35;99723.16;5086968;28;20381;-75
2020/12/30 04:46:24;;;;;;;0.50;0.30;;;;;;;15.57;50.98;99721.44;5084709;28;20028;-75
2020/12/30 04:48:50;;;;;;;0.20;0.20;;;;;;;15.60;51.50;99728.28;5093914;28;20364;-75
2020/12/30 04:51:17;;;;;;;0.70;0.40;;;;;;;15.60;51.39;99729.13;5089336;28;20028;-75
2020/12/30 04:53:44;;;;;;;0.30;0.30;;;;;;;15.61;51.18;99732.59;5093757;28;20401;-76
2020/12/30 04:56:12;;;;;;;0.30;0.30;;;;;;;15.62;51.07;99731.72;5090888;28;20036;-76
2020/12/30 04:58:38;;;;;;;0.70;0.30;;;;;;;15.64;51.20;99730.78;5089117;28;20024;-75
2020/12/30 05:01:06;;;;;;;0.73;0.38;;;;;;;15.64;51.16;99729.94;5086165;28;20493;-75
2020/12/30 05:03:38;;;;;;;0.25;0.25;;;;;;;15.66;50.74;99727.31;5057995;28;20478;-76
2020/12/30 05:06:05;;;;;;;0.47;0.30;;;;;;;15.67;51.21;99736.81;5082428;28;20039;-76
2020/12/30 05:08:34;;;;;;;0.60;0.30;;;;;;;15.66;51.10;99738.56;5090889;28;20412;-76
2020/12/30 05:10:59;;;;;;;0.30;0.30;;;;;;;15.67;51.28;99740.25;5089069;28;20016;-76
2020/12/30 05:13:26;;;;;;;0.30;0.30;;;;;;;15.68;51.23;99741.97;5093578;28;20046;-75
2020/12/30 05:15:51;;;;;;;0.63;0.30;;;;;;;15.68;51.19;99741.09;5090821;28;20490;-75
2020/12/30 05:18:19;;;;;;;0.40;0.30;;;;;;;15.70;51.08;99747.13;5072743;28;20039;-75
2020/12/30 05:20:46;;;;;;;0.30;0.30;;;;;;;15.70;51.11;99750.59;5072061;28;20610;-75
2020/12/30 05:23:12;;;;;;;0.38;0.38;;;;;;;15.71;51.02;99746.25;5087098;28;20119;-75
2020/12/30 05:25:40;;;;;;;0.50;0.30;;;;;;;15.71;51.21;99751.44;5075692;28;20505;-75
2020/12/30 05:28:07;;;;;;;0.30;0.30;;;;;;;15.71;50.92;99743.66;5093121;28;20031;-75
2020/12/30 05:30:34;;;;;;;0.63;0.30;;;;;;;15.73;51.05;99752.28;5079316;28;20047;-74
2020/12/30 05:33:00;;;;;;;0.30;0.30;;;;;;;15.73;50.91;99749.69;5092273;28;20462;-75
2020/12/30 05:35:27;;;;;;;0.55;0.40;;;;;;;15.72;51.22;99750.56;5075290;28;20044;-75
2020/12/30 05:37:53;;;;;;;0.30;0.30;;;;;;;15.73;51.07;99757.47;5092705;28;20046;-74
2020/12/30 05:40:30;;;;;;;0.70;0.30;;;;;;;15.74;51.11;99764.38;5077660;28;20016;-75
2020/12/30 05:43:13;;;;;;;0.50;0.30;;;;;;;15.73;51.15;99763.50;5086061;28;20031;-76
2020/12/30 05:45:52;;;;;;;0.47;0.30;;;;;;;15.74;51.27;99772.16;5091432;28;20089;-76
2020/12/30 05:48:18;;;;;;;0.40;0.20;;;;;;;15.74;51.21;99767.84;5077473;28;20502;-76
2020/12/30 05:50:57;;;;;;;0.32;0.20;;;;;;;15.75;51.17;99782.50;5095586;28;20514;-76
2020/12/30 05:53:24;;;;;;;0.30;0.30;;;;;;;15.74;51.13;99780.81;5093801;28;20070;-76
2020/12/30 05:55:51;;;;;;;0.30;0.20;;;;;;;15.75;51.41;99785.09;5064961;28;20482;-76
2020/12/30 05:58:17;;;;;;;0.50;0.32;;;;;;;15.75;51.15;99792.03;5088083;28;20474;-76
2020/12/30 06:00:43;;;;;;;0.50;0.30;;;;;;;15.74;51.22;99785.13;5092116;28;20036;-76
2020/12/30 06:03:13;;;;;;;0.20;0.20;;;;;;;15.73;51.13;99786.84;5074241;28;20371;-76
2020/12/30 06:05:38;;;;;;;0.80;0.30;;;;;;;15.72;51.19;99785.16;5090888;28;20036;-76
2020/12/30 06:08:04;;;;;;;0.52;0.30;;;;;;;15.71;51.38;99793.81;5091522;28;20381;-76
2020/12/30 06:10:31;;;;;;;0.30;0.22;;;;;;;15.70;51.22;99794.69;5070030;28;20037;-76
2020/12/30 06:12:59;;;;;;;0.30;0.20;;;;;;;15.69;51.26;99784.31;5082360;28;20024;-75
2020/12/30 06:15:30;;;;;;;0.40;0.20;;;;;;;15.68;51.33;99791.25;5090397;28;20028;-75
2020/12/30 06:17:59;;;;;;;0.30;0.30;;;;;;;15.66;51.44;99793.03;5095086;28;20027;-75
2020/12/30 06:20:32;;;;;;;0.28;0.20;;;;;;;15.67;51.36;99805.09;5096287;28;20050;-74
2020/12/30 06:23:04;;;;;;;0.25;0.22;;;;;;;15.66;51.42;99806.00;5087021;28;20039;-74
2020/12/30 06:25:38;;;;;;;0.20;0.20;;;;;;;15.66;51.36;99806.00;5094633;28;20032;-76
2020/12/30 06:28:08;;;;;;;0.20;0.20;;;;;;;15.64;51.45;99795.63;5095382;28;20073;-74
2020/12/30 06:30:34;;;;;;;0.38;0.20;;;;;;;15.66;51.18;99806.00;5088476;28;20032;-75
2020/12/30 06:33:01;;;;;;;0.47;0.30;;;;;;;15.64;51.53;99807.75;5093444;28;20119;-75
2020/12/30 06:35:29;;;;;;;0.50;0.20;;;;;;;15.63;51.36;99808.63;5095600;28;20433;-76
2020/12/30 06:37:56;;;;;;;0.65;0.40;;;;;;;15.63;51.33;99806.91;5091820;28;20059;-74
2020/12/30 06:40:24;;;;;;;0.35;0.20;;;;;;;15.64;51.45;99807.75;5077767;28;20394;-75
2020/12/30 06:42:55;;;;;;;0.95;0.30;;;;;;;15.63;51.36;99821.59;5093853;28;20503;-75
2020/12/30 06:45:42;;;;;;;0.57;0.30;;;;;;;15.62;51.42;99820.75;5091728;28;20071;-75
2020/12/30 06:48:09;;;;;;;0.30;0.20;;;;;;;15.62;51.37;99822.47;5092075;28;20421;-75
2020/12/30 06:50:34;;;;;;;0.32;0.20;;;;;;;15.60;51.43;99822.50;5094018;28;20385;-75
2020/12/30 06:53:29;;;;;;;0.40;0.30;;;;;;;15.62;51.48;99830.25;5095908;28;20028;-75
2020/12/30 06:55:56;;;;;;;0.20;0.20;;;;;;;15.61;51.50;99826.81;5087870;28;20055;-75
2020/12/30 06:58:44;;;;;;;0.77;0.22;;;;;;;15.61;51.45;99834.59;5095270;28;20028;-75
2020/12/30 07:01:14;;;;;;;0.45;0.30;;;;;;;15.59;51.56;99835.47;5069286;28;20034;-75
2020/12/30 07:03:40;;;;;;;0.30;0.30;;;;;;;15.61;51.30;99836.31;5087459;28;20394;-75
2020/12/30 07:06:21;;;;;;;0.52;0.30;;;;;;;15.60;51.35;99835.47;5091415;28;20036;-75
2020/12/30 07:08:47;;;;;;;0.20;0.20;;;;;;;15.60;51.49;99839.81;5087585;28;20040;-75
2020/12/30 07:11:12;;;;;;;0.30;0.20;;;;;;;15.59;51.32;99843.25;5095909;28;20121;-75
2020/12/30 07:13:41;;;;;;;0.35;0.20;;;;;;;15.58;51.50;99845.00;5074259;28;20036;-75
2020/12/30 07:16:19;;;;;;;0.20;0.20;;;;;;;15.57;51.42;99845.03;5092978;28;20036;-75
2020/12/30 07:18:48;;;;;;;0.28;0.20;;;;;;;15.59;51.24;99853.63;5073212;28;20115;-75
2020/12/30 07:21:15;;;;;;;0.52;0.30;;;;;;;15.57;51.40;99851.09;5096125;28;20026;-75
2020/12/30 07:23:42;;;;;;;0.20;0.20;;;;;;;15.57;51.50;99850.22;5097574;28;20028;-75
2020/12/30 07:26:16;;;;;;;0.30;0.30;;;;;;;15.57;51.26;99856.28;5085753;28;20386;-76
2020/12/30 07:28:44;;;;;;;0.35;0.20;;;;;;;15.56;51.34;99862.31;5083342;28;20094;-76
2020/12/30 07:31:09;;;;;;;0.98;0.30;;;;;;;15.55;51.41;99865.81;5094384;28;20031;-76
2020/12/30 07:33:37;;;;;;;0.40;0.20;;;;;;;15.56;51.46;99874.44;5086336;28;20021;-76
2020/12/30 07:36:09;;;;;;;0.20;0.20;;;;;;;15.56;51.37;99877.03;5094715;28;20065;-76
2020/12/30 07:38:38;;;;;;;0.35;0.35;;;;;;;15.56;51.23;99877.88;5094546;28;20107;-76
2020/12/30 07:41:09;;;;;;;0.20;0.20;;;;;;;15.56;51.44;99882.22;5093154;28;20028;-76
2020/12/30 07:43:45;;;;;;;0.30;0.20;;;;;;;15.54;51.23;99879.66;5092536;28;20031;-76
2020/12/30 07:46:18;;;;;;;0.30;0.20;;;;;;;15.55;51.25;99886.56;5094282;28;20039;-76
2020/12/30 07:48:43;;;;;;;0.57;0.30;;;;;;;15.54;51.31;99882.25;5095010;28;20382;-76
2020/12/30 07:51:09;;;;;;;0.82;0.30;;;;;;;15.55;51.26;99896.94;5094181;28;20036;-76
2020/12/30 07:53:34;;;;;;;0.43;0.30;;;;;;;15.54;51.27;99900.38;5076305;28;20119;-75
2020/12/30 07:56:00;;;;;;;0.63;0.28;;;;;;;15.55;51.31;99907.31;5093917;28;20164;-75
2020/12/30 07:58:25;;;;;;;0.32;0.30;;;;;;;15.55;51.22;99904.72;5091517;28;20107;-76
2020/12/30 08:00:52;;;;;;;0.50;0.32;;;;;;;15.55;51.21;99906.47;5085562;28;20510;-75
2020/12/30 08:03:20;;;;;;;0.20;0.20;;;;;;;15.54;51.04;99915.94;5076087;28;20082;-76
2020/12/30 08:05:47;;;;;;;0.30;0.30;;;;;;;15.55;51.55;99922.00;5094201;28;20050;-76
2020/12/30 08:08:12;;;;;;;0.45;0.40;;;;;;;15.54;51.25;99930.66;5091995;28;20024;-76
2020/12/30 08:10:38;;;;;;;0.60;0.35;;;;;;;15.55;51.07;99929.78;5094370;28;20024;-76
2020/12/30 08:13:09;;;;;;;0.85;0.35;;;;;;;15.55;51.25;99924.59;5090440;28;20085;-75
2020/12/30 08:15:35;;;;;;;0.30;0.30;;;;;;;15.57;51.08;99922.81;5092592;28;20429;-76
2020/12/30 08:18:00;;;;;;;0.40;0.30;;;;;;;15.60;51.01;99936.59;5091257;28;20026;-75
2020/12/30 08:20:26;;;;;;;0.60;0.30;;;;;;;15.62;51.05;99934.00;5071096;28;20086;-75
2020/12/30 08:22:58;;;;;;;0.30;0.30;;;;;;;15.64;50.95;99942.59;5077185;28;20477;-76
2020/12/30 08:25:23;;;;;;;0.55;0.30;;;;;;;15.64;50.90;99947.81;5086899;28;20355;-75
2020/12/30 08:27:49;;;;;;;1.05;0.30;;;;;;;15.67;51.14;99950.34;5092014;28;20158;-75
2020/12/30 08:30:14;;;;;;;1.02;0.38;;;;;;;15.67;50.88;99952.91;5085318;28;20032;-75
2020/12/30 08:32:58;;;;;;;0.28;0.20;;;;;;;15.67;50.86;99968.47;5094875;28;20115;-75
2020/12/30 08:35:31;;;;;;;0.38;0.30;;;;;;;15.68;50.94;99975.41;5090310;28;20524;-75
2020/12/30 08:38:15;;;;;;;0.57;0.20;;;;;;;15.68;50.88;99984.91;5090680;28;20048;-75
2020/12/30 08:40:42;;;;;;;0.35;0.30;;;;;;;15.71;50.67;99982.28;5084194;28;20017;-76
2020/12/30 08:43:10;;;;;;;0.30;0.30;;;;;;;15.70;50.89;99976.25;5087635;28;20028;-76
2020/12/30 08:46:04;;;;;;;0.47;0.30;;;;;;;15.71;50.84;99971.91;5079634;28;20119;-76
2020/12/30 08:48:31;;;;;;;0.32;0.28;;;;;;;15.74;50.70;99977.06;5042417;28;20032;-76
2020/12/30 08:50:57;;;;;;;0.45;0.20;;;;;;;15.74;50.86;99977.94;5092459;28;20501;-75
2020/12/30 08:53:39;;;;;;;0.20;0.20;;;;;;;15.75;50.81;99976.19;5093685;28;20039;-76
2020/12/30 08:56:06;;;;;;;0.20;0.20;;;;;;;15.76;50.77;99989.13;5092011;28;20038;-75
2020/12/30 08:58:32;;;;;;;0.20;0.20;;;;;;;15.78;50.64;99983.91;5092943;28;20040;-75
2020/12/30 09:00:58;;;;;;;0.60;0.30;;;;;;;15.78;50.86;99989.97;5091101;28;20039;-75
2020/12/30 09:03:26;;;;;;;0.55;0.30;;;;;;;15.79;50.65;99989.09;5089819;28;20032;-75
2020/12/30 09:05:53;;;;;;;0.22;0.22;;;;;;;15.80;50.74;99985.59;5086632;28;20024;-75
2020/12/30 09:08:20;;;;;;;0.88;0.30;;;;;;;15.82;50.76;99985.59;5092441;28;20079;-75
2020/12/30 09:10:47;;;;;;;0.43;0.32;;;;;;;15.84;50.86;99991.59;5083261;28;20031;-75
2020/12/30 09:13:18;;;;;;;0.40;0.22;;;;;;;15.84;50.67;99992.47;5088677;28;20059;-75
2020/12/30 09:15:45;;;;;;;0.35;0.25;;;;;;;15.85;50.48;99993.31;5084704;28;20428;-75
2020/12/30 09:18:13;;;;;;;0.30;0.30;;;;;;;15.86;50.97;99999.38;5091605;28;20032;-75
2020/12/30 09:20:39;;;;;;;0.40;0.30;;;;;;;15.88;50.72;100008.84;5090123;28;20525;-75
2020/12/30 09:23:05;;;;;;;0.28;0.20;;;;;;;15.89;50.76;100007.94;5090311;28;20036;-75
2020/12/30 09:25:33;;;;;;;0.43;0.35;;;;;;;15.87;50.82;100011.47;5075195;28;20077;-75
2020/12/30 09:27:59;;;;;;;0.57;0.20;;;;;;;15.87;50.78;100019.25;5092211;28;20035;-75
2020/12/30 09:30:26;;;;;;;0.20;0.20;;;;;;;15.84;50.66;100015.81;5088184;28;20027;-75
2020/12/30 09:32:54;;;;;;;0.20;0.20;;;;;;;15.83;50.89;100018.44;5073918;28;20035;-75
2020/12/30 09:35:26;;;;;;;0.95;0.30;;;;;;;15.83;50.97;100021.91;5091242;28;20097;-75
2020/12/30 09:37:57;;;;;;;0.40;0.20;;;;;;;15.82;51.25;100021.91;5093238;28;20671;-75
2020/12/30 09:40:24;;;;;;;0.35;0.20;;;;;;;15.83;50.86;100027.09;5092256;28;20034;-75
2020/12/30 09:42:50;;;;;;;0.30;0.22;;;;;;;15.89;50.77;100025.25;5089619;28;20028;-75
2020/12/30 09:45:18;;;;;;;0.20;0.20;;;;;;;15.94;50.65;100029.50;5094564;28;20043;-75
2020/12/30 09:47:44;;;;;;;0.52;0.30;;;;;;;15.97;50.60;100031.19;5081511;28;20024;-75
2020/12/30 09:50:11;;;;;;;0.35;0.30;;;;;;;15.95;50.51;100030.38;5096453;28;20027;-75
2020/12/30 09:52:42;;;;;;;1.00;0.45;;;;;;;15.91;50.75;100034.72;5084016;28;20114;-75
2020/12/30 09:55:09;;;;;;;0.20;0.20;;;;;;;15.86;50.85;100039.16;5105436;28;20031;-75
2020/12/30 09:57:35;;;;;;;1.02;0.22;;;;;;;15.82;51.05;100035.72;5079144;28;20035;-75
2020/12/30 10:00:00;;;;;;;0.25;0.20;;;;;;;15.82;51.00;100038.31;5102214;28;20036;-76
2020/12/30 10:02:29;;;;;;;0.20;0.20;;;;;;;15.82;50.98;100029.69;5077991;28;20032;-76
2020/12/30 10:04:54;;;;;;;0.30;0.20;;;;;;;15.82;50.88;100030.53;5074961;28;20028;-76
2020/12/30 10:07:20;;;;;;;0.40;0.30;;;;;;;15.83;51.12;100034.88;5083180;28;20085;-76
2020/12/30 10:09:45;;;;;;;0.17;0.15;;;;;;;15.82;50.72;100035.72;5094801;28;20048;-76
2020/12/30 10:12:11;;;;;;;0.43;0.30;;;;;;;15.82;50.90;100025.34;5095715;28;20405;-76
2020/12/30 10:14:36;;;;;;;0.82;0.30;;;;;;;15.81;50.96;100033.19;5091206;28;20126;-76
2020/12/30 10:17:01;;;;;;;0.25;0.20;;;;;;;15.81;50.88;100034.03;5094937;28;20024;-76
2020/12/30 10:19:27;;;;;;;1.55;0.25;;;;;;;15.81;50.85;100034.03;5095160;28;20101;-76
2020/12/30 10:21:52;;;;;;;0.28;0.20;;;;;;;15.81;50.96;100041.81;5093986;28;20085;-76
2020/12/30 10:24:17;;;;;;;0.30;0.30;;;;;;;15.81;50.89;100051.34;5097910;28;20036;-76
2020/12/30 10:26:43;;;;;;;0.20;0.20;;;;;;;15.80;50.86;100047.00;5096754;28;20047;-75
2020/12/30 10:29:08;;;;;;;0.20;0.20;;;;;;;15.78;50.94;100044.44;5082729;28;20037;-75
2020/12/30 10:31:34;;;;;;;0.50;0.22;;;;;;;15.80;50.79;100041.81;5076662;28;20479;-75
2020/12/30 10:33:59;;;;;;;0.40;0.30;;;;;;;15.79;50.85;100046.16;5091545;28;20477;-75
2020/12/30 10:36:29;;;;;;;0.43;0.30;;;;;;;15.80;50.77;100044.41;5095613;28;20035;-75
2020/12/30 10:39:00;;;;;;;0.47;0.30;;;;;;;15.79;50.83;100048.75;5089484;28;20086;-76
2020/12/30 10:41:25;;;;;;;0.35;0.20;;;;;;;15.79;50.86;100046.16;5093510;28;20055;-76
2020/12/30 10:43:51;;;;;;;0.45;0.30;;;;;;;15.79;50.78;100047.91;5095075;28;20474;-75
2020/12/30 10:46:17;;;;;;;0.30;0.20;;;;;;;15.78;51.08;100049.63;5078014;28;20470;-75
2020/12/30 10:48:47;;;;;;;0.28;0.20;;;;;;;15.79;50.55;100051.34;5094545;28;20110;-75
2020/12/30 10:51:14;;;;;;;0.20;0.20;;;;;;;15.83;50.63;100049.59;5094284;28;20430;-75
2020/12/30 10:53:40;;;;;;;0.32;0.25;;;;;;;15.86;50.63;100053.88;5076914;28;20078;-75
2020/12/30 10:56:08;;;;;;;0.40;0.25;;;;;;;15.88;50.75;100050.38;5091609;28;20437;-74
2020/12/30 10:58:34;;;;;;;0.30;0.30;;;;;;;15.89;50.53;100051.22;5090317;28;20032;-75
2020/12/30 11:00:59;;;;;;;0.40;0.20;;;;;;;15.88;50.59;100057.28;5092508;28;20032;-75
2020/12/30 11:03:24;;;;;;;0.28;0.20;;;;;;;15.88;50.84;100059.88;5087543;28;20033;-75
2020/12/30 11:05:50;;;;;;;0.73;0.20;;;;;;;15.85;50.64;100063.34;5090851;28;20024;-75
2020/12/30 11:08:15;;;;;;;0.45;0.20;;;;;;;15.84;50.82;100066.84;5074254;28;20052;-75
2020/12/30 11:10:41;;;;;;;0.28;0.20;;;;;;;15.82;51.05;100066.84;5094739;28;20485;-75
2020/12/30 11:13:06;;;;;;;0.50;0.30;;;;;;;15.81;50.86;100062.56;5093292;28;20039;-76
2020/12/30 11:15:35;;;;;;;0.30;0.30;;;;;;;15.80;50.93;100070.38;5074159;28;20513;-74
2020/12/30 11:18:00;;;;;;;0.35;0.30;;;;;;;15.79;50.93;100066.06;5085152;28;20051;-75
2020/12/30 11:20:26;;;;;;;0.40;0.20;;;;;;;15.77;50.79;100068.69;5094449;28;20067;-75
2020/12/30 11:22:52;;;;;;;0.25;0.20;;;;;;;15.76;50.96;100058.31;5078164;28;20028;-75
2020/12/30 11:25:17;;;;;;;0.65;0.28;;;;;;;15.76;50.85;100068.69;5088303;28;20595;-75
2020/12/30 11:27:42;;;;;;;0.50;0.28;;;;;;;15.72;50.84;100067.91;5092711;28;20121;-75
2020/12/30 11:30:08;;;;;;;0.22;0.20;;;;;;;15.74;50.79;100067.84;5093668;28;20060;-75
2020/12/30 11:32:34;;;;;;;1.05;0.30;;;;;;;15.76;50.96;100064.34;5076328;28;20063;-75